createdAt,value
2018-11-21T00:00:26.267Z,145.77
2018-11-21T00:02:56.352Z,146.00
2018-11-21T00:05:26.723Z,105.93
2018-11-21T00:07:56.873Z,99.53
2018-11-21T00:10:27.482Z,122.00
2018-11-21T00:12:58.264Z,155.80
2018-11-21T00:15:28.470Z,223.80
2018-11-21T00:17:58.680Z,222.67
2018-11-21T00:20:28.930Z,212.97
2018-11-21T00:22:59.042Z,198.17
2018-11-21T00:25:29.167Z,167.43
2018-11-21T00:27:59.184Z,191.23
2018-11-21T00:30:29.203Z,152.03
2018-11-21T00:32:59.386Z,160.73
2018-11-21T00:35:29.486Z,119.67
2018-11-21T00:37:59.718Z,100.20
2018-11-21T00:40:29.870Z,97.30
2018-11-21T00:42:59.897Z,91.30
2018-11-21T00:45:30.248Z,79.20
2018-11-21T00:48:00.169Z,86.00
2018-11-21T00:50:30.388Z,75.27
2018-11-21T00:53:00.365Z,87.07
2018-11-21T00:55:30.777Z,85.53
2018-11-21T00:58:00.933Z,86.73
2018-11-21T01:00:30.981Z,84.93
2018-11-21T01:03:01.242Z,70.30
2018-11-21T01:05:31.299Z,72.60
2018-11-21T01:08:01.531Z,65.03
2018-11-21T01:10:31.664Z,63.93
2018-11-21T01:13:01.791Z,66.50
2018-11-21T01:15:32.036Z,62.80
2018-11-21T01:18:02.077Z,67.47
2018-11-21T01:20:32.373Z,64.37
2018-11-21T01:23:02.577Z,68.17
2018-11-21T01:25:32.683Z,63.23
2018-11-21T01:28:02.652Z,62.17
2018-11-21T01:30:32.656Z,57.00
2018-11-21T01:33:09.382Z,61.27
2018-11-21T01:35:32.971Z,57.43
2018-11-21T01:38:03.289Z,59.60
2018-11-21T01:40:33.607Z,62.47
2018-11-21T01:43:03.605Z,66.93
2018-11-21T01:45:33.872Z,60.23
2018-11-21T01:48:04.130Z,85.80
2018-11-21T01:50:34.479Z,70.53
2018-11-21T01:53:04.746Z,62.57
2018-11-21T01:55:35.010Z,65.17
2018-11-21T01:58:04.948Z,73.67
2018-11-21T02:00:35.156Z,61.43
2018-11-21T02:03:05.301Z,68.53
2018-11-21T02:05:35.505Z,69.73
2018-11-21T02:08:05.716Z,66.17
2018-11-21T02:10:35.860Z,72.77
2018-11-21T02:13:06.036Z,72.13
2018-11-21T02:15:36.217Z,71.73
2018-11-21T02:18:06.534Z,69.33
2018-11-21T02:20:36.713Z,66.30
2018-11-21T02:23:06.973Z,80.63
2018-11-21T02:25:37.118Z,62.63
2018-11-21T02:28:07.430Z,62.30
2018-11-21T02:30:37.852Z,56.10
2018-11-21T02:33:08.031Z,62.90
2018-11-21T02:35:38.252Z,55.90
2018-11-21T02:38:08.194Z,56.87
2018-11-21T02:40:38.294Z,61.50
2018-11-21T02:43:08.345Z,59.90
2018-11-21T02:45:38.975Z,69.53
2018-11-21T02:48:08.987Z,74.13
2018-11-21T02:50:39.009Z,70.20
2018-11-21T02:53:09.296Z,65.03
2018-11-21T02:55:39.636Z,61.23
2018-11-21T02:58:09.839Z,57.67
2018-11-21T03:00:40.105Z,65.23
2018-11-21T03:03:10.595Z,59.77
2018-11-21T03:05:40.757Z,60.37
2018-11-21T03:08:10.935Z,57.77
2018-11-21T03:10:41.488Z,57.90
2018-11-21T03:13:11.866Z,56.00
2018-11-21T03:15:41.900Z,59.73
2018-11-21T03:18:12.020Z,60.50
2018-11-21T03:20:42.123Z,57.20
2018-11-21T03:23:12.468Z,56.77
2018-11-21T03:25:42.610Z,58.47
2018-11-21T03:28:12.734Z,63.50
2018-11-21T03:30:42.978Z,58.90
2018-11-21T03:33:13.403Z,57.47
2018-11-21T03:35:43.829Z,66.53
2018-11-21T03:38:14.108Z,68.00
2018-11-21T03:40:44.323Z,70.37
2018-11-21T03:43:14.383Z,78.90
2018-11-21T03:45:44.578Z,61.00
2018-11-21T03:48:14.881Z,68.67
2018-11-21T03:50:45.028Z,65.03
2018-11-21T03:53:15.095Z,62.87
2018-11-21T03:55:45.654Z,65.90
2018-11-21T03:58:15.859Z,69.87
2018-11-21T04:00:45.963Z,67.03
2018-11-21T04:03:16.080Z,60.10
2018-11-21T04:05:46.450Z,80.20
2018-11-21T04:08:16.475Z,61.70
2018-11-21T04:10:46.906Z,62.23
2018-11-21T04:13:17.128Z,48.60
2018-11-21T04:15:47.514Z,54.90
2018-11-21T04:18:17.642Z,51.97
2018-11-21T04:20:48.001Z,53.03
2018-11-21T04:23:18.592Z,57.50
2018-11-21T04:25:48.862Z,62.17
2018-11-21T04:28:19.445Z,62.13
2018-11-21T04:30:49.471Z,62.40
2018-11-21T04:33:19.977Z,54.50
2018-11-21T04:35:50.511Z,55.47
2018-11-21T04:38:20.834Z,51.37
2018-11-21T04:40:51.583Z,49.67
2018-11-21T04:43:21.791Z,43.63
2018-11-21T04:45:52.328Z,52.53
2018-11-21T04:48:22.577Z,49.50
2018-11-21T04:50:52.771Z,42.97
2018-11-21T04:53:23.071Z,47.87
2018-11-21T04:55:53.250Z,44.70
2018-11-21T04:58:23.610Z,47.37
2018-11-21T05:00:53.693Z,54.47
2018-11-21T05:03:23.991Z,45.33
2018-11-21T05:05:54.297Z,46.73
2018-11-21T05:08:24.297Z,43.17
2018-11-21T05:10:54.451Z,52.27
2018-11-21T05:13:24.522Z,44.27
2018-11-21T05:15:54.689Z,39.87
2018-11-21T05:18:24.742Z,48.73
2018-11-21T05:20:54.893Z,49.20
2018-11-21T05:23:25.308Z,49.40
2018-11-21T05:25:55.486Z,46.90
2018-11-21T05:28:25.680Z,48.63
2018-11-21T05:30:55.821Z,57.73
2018-11-21T05:33:27.413Z,51.17
2018-11-21T05:35:57.840Z,48.40
2018-11-21T05:38:27.778Z,52.47
2018-11-21T05:40:57.884Z,46.37
2018-11-21T05:43:27.949Z,47.20
2018-11-21T05:45:58.166Z,47.97
2018-11-21T05:48:28.559Z,46.20
2018-11-21T05:50:58.881Z,46.83
2018-11-21T05:53:29.528Z,46.80
2018-11-21T05:55:59.723Z,47.80
2018-11-21T05:58:30.210Z,53.63
2018-11-21T06:01:00.371Z,49.83
2018-11-21T06:03:30.840Z,48.50
2018-11-21T06:06:01.281Z,84.10
2018-11-21T06:08:31.306Z,91.60
2018-11-21T06:11:01.543Z,85.20
2018-11-21T06:13:31.734Z,60.63
2018-11-21T06:16:02.060Z,47.43
2018-11-21T06:18:32.031Z,52.77
2018-11-21T06:21:02.456Z,65.77
2018-11-21T06:23:32.602Z,101.65
2018-11-21T06:26:02.773Z,81.87
2018-11-21T06:28:33.423Z,81.37
2018-11-21T06:31:03.790Z,68.33
2018-11-21T06:33:33.915Z,53.50
2018-11-21T06:36:04.219Z,68.20
2018-11-21T06:38:34.302Z,56.03
2018-11-21T06:41:04.635Z,70.23
2018-11-21T06:43:34.809Z,103.63
2018-11-21T06:46:05.068Z,71.33
2018-11-21T06:48:36.438Z,78.23
2018-11-21T06:51:07.531Z,83.37
2018-11-21T06:53:38.826Z,114.47
2018-11-21T06:56:09.387Z,124.60
2018-11-21T06:58:40.706Z,119.13
2018-11-21T07:01:12.087Z,89.70
2018-11-21T07:03:44.929Z,90.37
2018-11-21T07:06:15.675Z,76.35
2018-11-21T07:08:46.523Z,62.13
2018-11-21T07:11:19.222Z,59.70
2018-11-21T07:13:50.544Z,83.17
2018-11-21T07:16:20.943Z,69.67
2018-11-21T07:18:51.180Z,80.43
2018-11-21T07:21:21.704Z,67.17
2018-11-21T07:23:54.085Z,76.53
2018-11-21T07:26:26.147Z,51.07
2018-11-21T07:28:57.975Z,40.07
2018-11-21T07:31:30.496Z,80.25
2018-11-21T07:34:01.983Z,48.97
2018-11-21T07:36:34.204Z,69.43
2018-11-21T07:39:06.048Z,47.70
2018-11-21T07:41:39.223Z,40.27
2018-11-21T07:44:11.211Z,38.30
2018-11-21T07:46:42.597Z,43.30
2018-11-21T07:49:13.569Z,39.77
2018-11-21T07:51:44.270Z,45.77
2018-11-21T07:54:15.118Z,37.57
2018-11-21T07:57:13.339Z,42.17
2018-11-21T08:00:20.637Z,38.37
2018-11-21T08:02:50.872Z,37.93
2018-11-21T08:05:25.283Z,42.03
2018-11-21T08:08:01.928Z,36.73
2018-11-21T08:11:01.755Z,55.03
2018-11-21T08:13:53.796Z,38.37
2018-11-21T08:16:42.812Z,41.45
2018-11-21T08:19:34.545Z,40.57
2018-11-21T08:22:20.036Z,38.00
2018-11-21T08:25:13.701Z,40.67
2018-11-21T08:28:05.820Z,39.27
2018-11-21T08:30:36.466Z,35.53
2018-11-21T08:33:06.465Z,43.20
2018-11-21T08:35:36.759Z,38.63
2018-11-21T08:38:07.049Z,38.60
2018-11-21T08:40:37.323Z,35.97
2018-11-21T08:43:08.165Z,43.93
2018-11-21T08:45:38.356Z,38.57
2018-11-21T08:48:08.952Z,43.30
2018-11-21T08:50:39.452Z,36.53
2018-11-21T08:53:09.517Z,38.37
2018-11-21T08:55:39.760Z,58.87
2018-11-21T08:58:10.809Z,59.30
2018-11-21T09:00:42.344Z,55.93
2018-11-21T09:03:12.503Z,60.50
2018-11-21T09:05:43.680Z,43.23
2018-11-21T09:08:13.841Z,55.23
2018-11-21T09:10:44.088Z,50.50
2018-11-21T09:13:14.659Z,54.10
2018-11-21T09:15:44.924Z,49.40
2018-11-21T09:18:15.081Z,53.07
2018-11-21T09:20:45.454Z,42.53
2018-11-21T09:23:15.411Z,45.40
2018-11-21T09:25:45.843Z,46.47
2018-11-21T09:28:16.039Z,42.97
2018-11-21T09:30:46.126Z,49.83
2018-11-21T09:33:16.230Z,40.37
2018-11-21T09:35:46.770Z,43.13
2018-11-21T09:38:16.874Z,41.43
2018-11-21T09:40:46.957Z,39.03
2018-11-21T09:43:17.068Z,34.90
2018-11-21T09:45:47.322Z,41.37
2018-11-21T09:48:17.425Z,41.03
2018-11-21T09:50:47.514Z,39.43
2018-11-21T09:53:17.780Z,38.07
2018-11-21T09:55:48.333Z,39.20
2018-11-21T09:58:19.003Z,45.87
2018-11-21T10:01:25.572Z,47.10
2018-11-21T10:03:58.857Z,31.27
2018-11-21T10:06:27.899Z,45.17
2018-11-21T10:08:59.819Z,32.37
2018-11-21T10:11:30.752Z,31.63
2018-11-21T10:14:00.823Z,37.70
2018-11-21T10:16:30.909Z,33.80
2018-11-21T10:19:01.418Z,33.47
2018-11-21T10:21:33.481Z,37.33
2018-11-21T10:24:03.794Z,30.83
2018-11-21T10:26:33.808Z,29.07
2018-11-21T10:29:03.855Z,29.33
2018-11-21T10:31:33.978Z,34.70
2018-11-21T10:34:04.064Z,30.10
2018-11-21T10:36:34.103Z,41.93
2018-11-21T10:39:05.718Z,42.00
2018-11-21T10:41:35.830Z,30.53
2018-11-21T10:44:06.076Z,31.07
2018-11-21T10:46:36.362Z,46.03
2018-11-21T10:49:07.096Z,43.53
2018-11-21T10:51:37.506Z,34.77
2018-11-21T10:54:07.779Z,36.30
2018-11-21T10:56:37.865Z,36.07
2018-11-21T10:59:08.117Z,37.77
2018-11-21T11:01:55.676Z,36.23
2018-11-21T11:07:33.800Z,40.13
2018-11-21T11:10:28.387Z,30.93
2018-11-21T11:13:24.173Z,29.60
2018-11-21T11:16:12.078Z,37.70
2018-11-21T11:19:10.070Z,38.97
2018-11-21T11:21:58.005Z,34.87
2018-11-21T11:25:02.194Z,45.97
2018-11-21T11:28:10.306Z,35.20
2018-11-21T11:31:17.018Z,36.13
2018-11-21T11:33:58.265Z,49.47
2018-11-21T11:36:36.902Z,37.83
2018-11-21T11:39:23.658Z,43.50
2018-11-21T11:42:15.976Z,44.40
2018-11-21T11:45:04.187Z,36.37
2018-11-21T11:47:52.200Z,59.10
2018-11-21T11:50:39.800Z,39.90
2018-11-21T11:53:31.476Z,44.33
2018-11-21T11:56:23.460Z,34.27
2018-11-21T11:59:27.349Z,44.90
2018-11-21T12:02:31.193Z,35.30
2018-11-21T12:05:22.984Z,57.80
2018-11-21T12:08:17.674Z,66.53
2018-11-21T12:11:06.826Z,55.40
2018-11-21T12:13:54.523Z,59.97
2018-11-21T12:16:42.517Z,60.30
2018-11-21T12:19:31.659Z,58.63
2018-11-21T12:22:29.784Z,56.73
2018-11-21T12:25:21.693Z,50.47
2018-11-21T12:28:19.925Z,54.03
2018-11-21T12:31:09.292Z,51.60
2018-11-21T12:33:56.995Z,55.70
2018-11-21T12:36:46.104Z,55.27
2018-11-21T12:39:47.274Z,61.87
2018-11-21T12:42:42.664Z,54.67
2018-11-21T12:45:30.958Z,58.77
2018-11-21T12:48:28.993Z,58.37
2018-11-21T12:51:18.117Z,57.80
2018-11-21T12:54:10.065Z,46.33
2018-11-21T12:56:54.797Z,38.83
2018-11-21T12:59:56.342Z,41.60
2018-11-21T13:02:38.242Z,47.50
2018-11-21T13:05:39.839Z,57.70
2018-11-21T13:08:44.107Z,66.13
2018-11-21T13:11:31.902Z,53.57
2018-11-21T13:14:19.635Z,50.53
2018-11-21T13:17:00.949Z,47.57
2018-11-21T13:19:49.999Z,51.00
2018-11-21T13:22:56.959Z,53.87
2018-11-21T13:25:44.862Z,48.73
2018-11-21T13:28:45.978Z,53.03
2018-11-21T13:31:44.149Z,55.17
2018-11-21T13:34:31.497Z,47.43
2018-11-21T13:37:09.268Z,63.37
2018-11-21T13:39:58.498Z,53.87
2018-11-21T13:42:56.576Z,54.57
2018-11-21T13:45:48.528Z,70.20
2018-11-21T13:48:35.994Z,70.70
2018-11-21T13:51:37.166Z,61.97
2018-11-21T13:54:41.884Z,58.17
2018-11-21T13:57:12.140Z,81.97
2018-11-21T13:59:42.170Z,78.77
2018-11-21T14:02:12.289Z,72.93
2018-11-21T14:04:42.300Z,88.53
2018-11-21T14:07:13.016Z,79.75
2018-11-21T14:09:43.177Z,66.93
2018-11-21T14:12:13.317Z,85.50
2018-11-21T14:14:43.299Z,98.67
2018-11-21T14:17:13.522Z,88.10
2018-11-21T14:19:43.528Z,91.87
2018-11-21T14:22:14.092Z,127.53
2018-11-21T14:25:03.335Z,92.00
2018-11-21T14:27:33.603Z,100.67
2018-11-21T14:30:03.513Z,99.43
2018-11-21T14:32:33.913Z,124.13
2018-11-21T14:35:03.933Z,89.50
2018-11-21T14:37:34.130Z,112.80
2018-11-21T14:40:04.270Z,87.77
2018-11-21T14:42:34.259Z,96.70
2018-11-21T14:45:04.527Z,115.87
2018-11-21T14:47:34.940Z,91.77
2018-11-21T14:50:10.643Z,131.97
2018-11-21T14:52:49.783Z,103.23
2018-11-21T14:55:20.538Z,87.27
2018-11-21T14:57:51.275Z,87.03
2018-11-21T15:00:22.050Z,106.90
2018-11-21T15:02:52.294Z,81.53
2018-11-21T15:05:22.256Z,69.50
2018-11-21T15:07:52.582Z,91.43
2018-11-21T15:10:22.673Z,91.37
2018-11-21T15:12:53.037Z,109.80
2018-11-21T15:15:24.654Z,106.83
2018-11-21T15:17:54.771Z,98.07
2018-11-21T15:20:25.726Z,129.80
2018-11-21T15:22:56.344Z,139.10
2018-11-21T15:25:26.317Z,146.60
2018-11-21T15:27:56.506Z,199.67
2018-11-21T15:30:28.722Z,175.13
2018-11-21T15:32:59.096Z,172.07
2018-11-21T15:35:30.663Z,178.87
2018-11-21T15:38:00.875Z,163.60
2018-11-21T15:40:31.107Z,152.87
2018-11-21T15:43:01.322Z,165.07
2018-11-21T15:45:31.659Z,165.40
2018-11-21T15:48:02.702Z,175.30
2018-11-21T15:50:33.517Z,175.83
2018-11-21T15:53:04.315Z,161.10
2018-11-21T15:55:34.803Z,142.03
2018-11-21T15:58:05.166Z,141.53
2018-11-21T16:00:36.440Z,132.70
2018-11-21T16:03:08.017Z,120.43
2018-11-21T16:05:38.773Z,142.90
2018-11-21T16:08:10.409Z,100.47
2018-11-21T16:10:42.405Z,96.33
2018-11-21T16:13:12.602Z,80.50
2018-11-21T16:15:47.522Z,83.37
2018-11-21T16:18:18.510Z,70.13
2018-11-21T16:20:48.890Z,72.03
2018-11-21T16:23:19.056Z,69.97
2018-11-21T16:25:49.204Z,84.93
2018-11-21T16:28:19.574Z,116.43
2018-11-21T16:30:49.920Z,154.13
2018-11-21T16:33:20.028Z,147.33
2018-11-21T16:35:50.143Z,201.97
2018-11-21T16:38:20.370Z,171.37
2018-11-21T16:40:50.527Z,172.63
2018-11-21T16:43:20.713Z,191.20
2018-11-21T16:45:52.894Z,171.13
2018-11-21T16:48:22.946Z,215.87
2018-11-21T16:50:53.252Z,169.87
2018-11-21T16:53:23.459Z,150.20
2018-11-21T16:55:53.631Z,130.10
2018-11-21T16:58:23.839Z,126.53
2018-11-21T17:00:54.092Z,133.83
2018-11-21T17:03:24.160Z,128.17
2018-11-21T17:05:54.350Z,111.73
2018-11-21T17:08:24.352Z,99.80
2018-11-21T17:10:54.774Z,83.40
2018-11-21T17:13:24.727Z,57.07
2018-11-21T17:15:55.416Z,60.00
2018-11-21T17:18:25.893Z,57.67
2018-11-21T17:20:56.200Z,78.70
2018-11-21T17:23:26.029Z,138.13
2018-11-21T17:25:56.171Z,323.37
2018-11-21T17:28:26.437Z,406.80
2018-11-21T17:30:56.622Z,387.63
2018-11-21T17:33:27.150Z,364.53
2018-11-21T17:35:57.264Z,367.90
2018-11-21T17:38:33.416Z,451.10
